createdAt,value
2018-03-11T00:07:46.114Z,9
2018-03-11T00:17:46.113Z,9
2018-03-11T00:27:46.060Z,9
2018-03-11T00:37:46.169Z,10
2018-03-11T00:47:46.123Z,9
2018-03-11T00:57:46.197Z,10
2018-03-11T01:07:46.140Z,9
2018-03-11T01:17:46.128Z,10
2018-03-11T01:27:46.079Z,10
2018-03-11T01:37:46.128Z,10
2018-03-11T01:47:46.126Z,11
2018-03-11T01:57:46.058Z,12
2018-03-11T02:07:46.150Z,12
2018-03-11T02:17:46.157Z,13
2018-03-11T02:27:46.055Z,14
2018-03-11T02:37:46.145Z,12
2018-03-11T02:47:46.078Z,13
2018-03-11T02:57:46.150Z,14
2018-03-11T03:07:46.079Z,14
2018-03-11T03:17:46.041Z,13
2018-03-11T03:27:46.113Z,13
2018-03-11T03:37:46.034Z,15
2018-03-11T03:47:46.182Z,15
2018-03-11T03:57:46.082Z,15
2018-03-11T04:07:46.083Z,18
2018-03-11T04:17:46.200Z,17
2018-03-11T04:27:46.121Z,18
2018-03-11T04:37:46.044Z,16
2018-03-11T04:47:46.083Z,16
2018-03-11T04:57:46.048Z,14
2018-03-11T05:07:46.016Z,15
2018-03-11T05:17:46.134Z,15
2018-03-11T05:27:46.076Z,16
2018-03-11T05:37:46.103Z,17
2018-03-11T05:47:49.347Z,19
2018-03-11T05:57:46.130Z,17
2018-03-11T06:07:46.168Z,17
2018-03-11T06:17:46.073Z,18
2018-03-11T06:27:52.708Z,21
2018-03-11T06:37:46.194Z,20
2018-03-11T06:47:49.265Z,15
2018-03-11T06:57:49.173Z,13
2018-03-11T07:07:46.116Z,13
2018-03-11T07:17:46.057Z,13
2018-03-11T07:27:49.486Z,10
2018-03-11T07:37:47.869Z,10
2018-03-11T07:47:46.134Z,10
2018-03-11T07:57:46.038Z,9
2018-03-11T08:07:46.087Z,9
2018-03-11T08:17:46.130Z,9
2018-03-11T08:27:46.012Z,9
2018-03-11T08:37:55.032Z,10
2018-03-11T08:47:46.116Z,9
2018-03-11T08:57:46.060Z,10
2018-03-11T09:07:52.274Z,11
2018-03-11T09:17:53.428Z,9
2018-03-11T09:27:49.766Z,10
2018-03-11T09:37:46.160Z,10
2018-03-11T09:47:46.061Z,9
2018-03-11T09:57:49.154Z,9
2018-03-11T10:07:50.015Z,8
2018-03-11T10:17:49.621Z,8
2018-03-11T10:27:46.096Z,8
2018-03-11T10:37:46.234Z,8
2018-03-11T10:47:46.022Z,7
2018-03-11T10:57:46.098Z,6
2018-03-11T11:07:46.084Z,7
2018-03-11T11:17:46.133Z,4
2018-03-11T11:27:46.143Z,5
2018-03-11T11:37:49.910Z,3
2018-03-11T11:47:46.155Z,2
2018-03-11T11:57:46.136Z,2
2018-03-11T12:07:46.104Z,2
2018-03-11T12:17:49.251Z,3
2018-03-11T12:27:53.070Z,3
2018-03-11T12:37:56.313Z,2
2018-03-11T12:47:46.118Z,2
2018-03-11T12:57:49.733Z,2
2018-03-11T13:07:46.094Z,2
2018-03-11T13:17:49.441Z,3
2018-03-11T13:27:46.107Z,3
2018-03-11T13:37:52.454Z,3
2018-03-11T13:47:50.053Z,3
2018-03-11T13:57:46.136Z,2
2018-03-11T14:07:46.057Z,3
2018-03-11T14:17:46.047Z,3
2018-03-11T14:27:52.154Z,2
2018-03-11T14:37:46.131Z,2
2018-03-11T14:47:49.793Z,2
2018-03-11T14:57:49.212Z,2
2018-03-11T15:07:52.506Z,2
2018-03-11T15:17:46.111Z,2
2018-03-11T15:27:46.134Z,2
2018-03-11T15:37:46.218Z,2
2018-03-11T15:47:46.089Z,2
2018-03-11T15:57:46.118Z,3
2018-03-11T16:07:46.066Z,2
2018-03-11T16:17:46.057Z,3
2018-03-11T16:27:52.612Z,3
2018-03-11T16:37:46.191Z,3
2018-03-11T16:47:46.162Z,3
2018-03-11T16:57:46.141Z,4
2018-03-11T17:07:49.380Z,4
2018-03-11T17:17:46.194Z,4
2018-03-11T17:27:46.180Z,4
2018-03-11T17:37:46.146Z,4
2018-03-11T17:47:46.187Z,4
2018-03-11T17:57:53.352Z,4
2018-03-11T18:07:49.440Z,4
2018-03-11T18:17:56.480Z,4
2018-03-11T18:27:46.337Z,5
2018-03-11T18:37:46.217Z,6
2018-03-11T18:47:46.041Z,8
2018-03-11T18:57:46.096Z,8
2018-03-11T19:07:46.182Z,8
2018-03-11T19:17:52.755Z,7
2018-03-11T19:27:52.857Z,9
2018-03-11T19:37:49.579Z,8
2018-03-11T19:47:46.073Z,7
2018-03-11T19:57:46.157Z,7
2018-03-11T20:07:49.842Z,7
2018-03-11T20:17:46.087Z,9
2018-03-11T20:27:46.035Z,9
2018-03-11T20:37:46.102Z,8
2018-03-11T20:47:46.132Z,10
2018-03-11T20:57:49.982Z,10
2018-03-11T21:07:49.923Z,11
2018-03-11T21:17:49.341Z,10
2018-03-11T21:27:46.080Z,11
2018-03-11T21:37:49.807Z,10
2018-03-11T21:47:52.164Z,10
2018-03-11T21:57:50.167Z,10
2018-03-11T22:07:50.935Z,10
2018-03-11T22:17:49.836Z,9
2018-03-11T22:27:46.063Z,11
2018-03-11T22:37:55.529Z,10
2018-03-11T22:47:46.062Z,12
2018-03-11T22:57:53.783Z,12
2018-03-11T23:07:46.133Z,13
2018-03-11T23:17:49.462Z,14
2018-03-11T23:27:46.144Z,14
2018-03-11T23:37:46.154Z,15
2018-03-11T23:47:55.354Z,16
2018-03-11T23:57:52.442Z,15
